createdAt,value
2023-03-31T00:00:58.145Z,14.18
2023-03-31T00:03:25.717Z,12.90
2023-03-31T00:05:58.751Z,14.90
2023-03-31T00:08:30.535Z,14.18
2023-03-31T00:11:00.823Z,9.48
2023-03-31T00:13:30.420Z,12.43
2023-03-31T00:16:03.261Z,12.13
2023-03-31T00:18:31.115Z,12.35
2023-03-31T00:21:07.548Z,9.80
2023-03-31T00:23:34.756Z,11.07
2023-03-31T00:26:02.448Z,8.60
2023-03-31T00:28:29.698Z,12.80
2023-03-31T00:31:01.699Z,11.02
2023-03-31T00:33:29.826Z,14.48
2023-03-31T00:36:02.087Z,10.80
2023-03-31T00:38:30.429Z,10.25
2023-03-31T00:40:59.299Z,10.85
2023-03-31T00:43:34.199Z,9.73
2023-03-31T00:46:20.004Z,9.43
2023-03-31T00:48:51.845Z,11.85
2023-03-31T00:51:22.451Z,8.02
2023-03-31T00:53:57.560Z,9.05
2023-03-31T00:56:29.013Z,10.10
2023-03-31T00:59:01.714Z,12.20
2023-03-31T01:01:30.674Z,7.05
2023-03-31T01:03:59.362Z,10.23
2023-03-31T01:06:31.110Z,11.68
2023-03-31T01:08:58.510Z,12.23
2023-03-31T01:11:30.693Z,8.18
2023-03-31T01:13:58.741Z,10.07
2023-03-31T01:16:26.403Z,7.15
2023-03-31T01:18:54.104Z,8.65
2023-03-31T01:22:06.543Z,9.40
2023-03-31T01:25:01.577Z,8.40
2023-03-31T01:27:54.251Z,8.35
2023-03-31T01:30:28.012Z,8.73
2023-03-31T01:33:20.272Z,8.52
2023-03-31T01:36:06.572Z,7.50
2023-03-31T01:39:02.466Z,6.75
2023-03-31T01:42:06.834Z,7.13
2023-03-31T01:44:40.588Z,8.90
2023-03-31T01:47:22.898Z,8.80
2023-03-31T01:50:05.207Z,8.82
2023-03-31T01:52:47.132Z,13.13
2023-03-31T01:55:36.624Z,10.20
2023-03-31T01:58:20.360Z,10.13
2023-03-31T02:00:57.108Z,9.95
2023-03-31T02:03:33.200Z,11.32
2023-03-31T02:06:09.602Z,8.50
2023-03-31T02:08:44.004Z,12.15
2023-03-31T02:11:12.335Z,9.48
2023-03-31T02:13:44.606Z,9.82
2023-03-31T02:16:19.116Z,9.55
2023-03-31T02:18:50.116Z,10.23
2023-03-31T02:21:18.257Z,10.68
2023-03-31T02:23:47.646Z,10.20
2023-03-31T02:26:20.827Z,9.13
2023-03-31T02:28:48.185Z,9.00
2023-03-31T02:31:21.708Z,8.48
2023-03-31T02:33:49.774Z,10.02
2023-03-31T02:36:18.551Z,8.48
2023-03-31T02:39:08.626Z,8.95
2023-03-31T02:41:36.716Z,12.23
2023-03-31T02:44:04.471Z,16.63
2023-03-31T02:46:32.550Z,10.95
2023-03-31T02:49:03.614Z,9.90
2023-03-31T02:51:34.105Z,10.18
2023-03-31T02:54:19.883Z,8.30
2023-03-31T02:57:15.183Z,10.52
2023-03-31T03:00:09.822Z,10.80
2023-03-31T03:02:55.639Z,13.15
2023-03-31T03:05:36.477Z,7.78
2023-03-31T03:08:43.834Z,15.45
2023-03-31T03:11:30.308Z,8.98
2023-03-31T03:14:11.588Z,11.25
2023-03-31T03:16:48.276Z,11.88
2023-03-31T03:19:21.634Z,9.68
2023-03-31T03:21:49.548Z,7.45
2023-03-31T03:24:18.075Z,10.02
2023-03-31T03:26:45.697Z,11.40
2023-03-31T03:29:14.813Z,9.68
2023-03-31T03:31:43.090Z,7.22
2023-03-31T03:34:10.799Z,6.45
2023-03-31T03:36:38.733Z,7.20
2023-03-31T03:39:08.077Z,7.75
2023-03-31T03:41:35.560Z,7.63
2023-03-31T03:44:03.189Z,8.15
2023-03-31T03:46:30.585Z,9.13
2023-03-31T03:48:58.194Z,9.40
2023-03-31T03:51:25.576Z,11.10
2023-03-31T03:53:53.065Z,11.50
2023-03-31T03:56:22.154Z,13.90
2023-03-31T03:58:50.915Z,8.25
2023-03-31T04:01:18.389Z,10.25
2023-03-31T04:03:45.882Z,7.93
2023-03-31T04:06:13.130Z,15.07
2023-03-31T04:08:40.982Z,10.40
2023-03-31T04:11:19.378Z,10.25
2023-03-31T04:13:47.492Z,10.30
2023-03-31T04:16:15.029Z,8.88
2023-03-31T04:18:42.959Z,11.75
2023-03-31T04:21:22.923Z,7.68
2023-03-31T04:23:59.006Z,9.73
2023-03-31T04:26:38.893Z,10.85
2023-03-31T04:29:07.648Z,7.85
2023-03-31T04:31:38.955Z,11.20
2023-03-31T04:34:07.173Z,10.82
2023-03-31T04:36:34.470Z,9.35
2023-03-31T04:39:01.977Z,10.25
2023-03-31T04:41:29.327Z,10.45
2023-03-31T04:43:56.924Z,9.15
2023-03-31T04:46:24.334Z,10.80
2023-03-31T04:48:51.868Z,10.45
2023-03-31T04:51:20.406Z,9.55
2023-03-31T04:53:47.994Z,8.95
2023-03-31T04:56:15.492Z,9.82
2023-03-31T04:58:44.413Z,7.57
2023-03-31T05:01:13.754Z,11.55
2023-03-31T05:03:41.500Z,7.05
2023-03-31T05:06:09.131Z,12.10
2023-03-31T05:08:37.426Z,10.23
2023-03-31T05:11:04.731Z,9.70
2023-03-31T05:13:32.303Z,13.80
2023-03-31T05:16:05.923Z,10.73
2023-03-31T05:18:33.636Z,9.45
2023-03-31T05:21:19.692Z,9.35
2023-03-31T05:23:48.045Z,15.73
2023-03-31T05:26:16.175Z,8.05
2023-03-31T05:28:44.976Z,11.18
2023-03-31T05:31:13.256Z,11.13
2023-03-31T05:33:42.221Z,9.02
2023-03-31T05:38:44.138Z,10.65
2023-03-31T05:41:11.943Z,9.13
2023-03-31T05:43:40.112Z,8.77
2023-03-31T05:46:07.994Z,10.45
2023-03-31T05:48:37.618Z,9.90
2023-03-31T05:51:05.532Z,8.93
2023-03-31T05:53:33.855Z,9.23
2023-03-31T05:56:03.427Z,13.63
2023-03-31T05:58:31.533Z,11.32
2023-03-31T06:01:09.565Z,16.35
2023-03-31T06:03:41.247Z,11.50
2023-03-31T06:06:09.946Z,9.38
2023-03-31T06:08:40.632Z,13.25
2023-03-31T06:11:10.171Z,16.38
2023-03-31T06:13:38.646Z,11.02
2023-03-31T06:16:06.947Z,9.23
2023-03-31T06:18:36.468Z,11.95
2023-03-31T06:21:04.685Z,12.25
2023-03-31T06:23:33.270Z,12.38
2023-03-31T06:26:03.435Z,11.05
2023-03-31T06:28:31.337Z,12.73
2023-03-31T06:31:07.758Z,11.32
2023-03-31T06:33:36.309Z,9.25
2023-03-31T06:36:05.649Z,12.13
2023-03-31T06:38:38.548Z,13.55
2023-03-31T06:41:07.943Z,9.00
2023-03-31T06:43:36.048Z,13.70
2023-03-31T06:46:04.010Z,9.48
2023-03-31T06:48:32.089Z,12.07
2023-03-31T06:51:01.664Z,8.60
2023-03-31T06:53:29.656Z,10.23
2023-03-31T06:55:56.915Z,16.13
2023-03-31T06:58:24.781Z,13.95
2023-03-31T07:00:52.977Z,20.67
2023-03-31T07:03:25.277Z,13.85
2023-03-31T07:05:54.644Z,10.35
2023-03-31T07:08:23.150Z,13.00
2023-03-31T07:10:58.013Z,15.45
2023-03-31T07:13:26.672Z,12.40
2023-03-31T07:15:54.784Z,15.30
2023-03-31T07:18:26.190Z,13.63
2023-03-31T07:20:53.810Z,14.63
2023-03-31T07:23:21.716Z,12.75
2023-03-31T07:25:49.219Z,15.18
2023-03-31T07:28:17.259Z,13.98
2023-03-31T07:30:44.565Z,10.88
2023-03-31T07:33:12.174Z,16.75
2023-03-31T07:35:41.113Z,10.38
2023-03-31T07:38:12.942Z,9.82
2023-03-31T07:40:41.645Z,13.80
2023-03-31T07:43:10.163Z,14.48
2023-03-31T07:45:39.933Z,10.63
2023-03-31T07:48:07.574Z,13.23
2023-03-31T07:50:34.909Z,9.38
2023-03-31T07:53:04.524Z,10.70
2023-03-31T07:55:31.988Z,10.35
2023-03-31T07:57:59.675Z,9.05
2023-03-31T08:00:27.170Z,10.13
2023-03-31T08:02:54.761Z,9.65
2023-03-31T08:05:22.113Z,7.95
2023-03-31T08:07:50.904Z,7.82
2023-03-31T08:10:24.700Z,13.30
2023-03-31T08:12:52.733Z,7.35
2023-03-31T08:15:20.126Z,9.68
2023-03-31T08:17:47.877Z,8.57
2023-03-31T08:20:15.534Z,10.70
2023-03-31T08:22:43.095Z,8.75
2023-03-31T08:25:10.510Z,8.10
2023-03-31T08:27:40.466Z,13.60
2023-03-31T08:30:10.674Z,6.22
2023-03-31T08:32:38.803Z,5.45
2023-03-31T08:35:06.785Z,7.30
2023-03-31T08:37:34.380Z,7.85
2023-03-31T08:40:05.211Z,8.07
2023-03-31T08:42:39.069Z,6.38
2023-03-31T08:45:29.874Z,6.32
2023-03-31T08:48:03.561Z,6.87
2023-03-31T08:50:34.917Z,8.18
2023-03-31T08:53:05.111Z,6.60
2023-03-31T08:55:46.783Z,6.72
2023-03-31T08:58:41.074Z,4.32
2023-03-31T09:01:16.891Z,4.35
2023-03-31T09:04:22.004Z,9.27
2023-03-31T09:06:49.568Z,9.27
2023-03-31T09:09:34.195Z,7.38
2023-03-31T09:12:08.074Z,7.50
2023-03-31T09:14:45.820Z,3.80
2023-03-31T09:17:25.680Z,4.10
2023-03-31T09:20:01.996Z,5.85
2023-03-31T09:22:34.796Z,8.07
2023-03-31T09:25:26.399Z,5.22
2023-03-31T09:27:58.026Z,5.97
2023-03-31T09:30:29.382Z,7.22
2023-03-31T09:33:10.225Z,5.50
2023-03-31T09:35:38.568Z,5.05
2023-03-31T09:38:06.444Z,5.85
2023-03-31T09:40:34.737Z,8.32
2023-03-31T09:43:06.370Z,5.20
2023-03-31T09:45:34.571Z,5.07
2023-03-31T09:48:07.240Z,4.80
2023-03-31T09:50:45.114Z,5.63
2023-03-31T09:53:24.736Z,5.93
2023-03-31T09:56:00.714Z,5.05
2023-03-31T09:58:28.134Z,8.23
2023-03-31T10:01:06.532Z,7.60
2023-03-31T10:03:37.058Z,5.25
2023-03-31T10:06:12.354Z,4.05
2023-03-31T10:08:57.808Z,10.88
2023-03-31T10:11:27.361Z,4.40
2023-03-31T10:14:14.560Z,5.05
2023-03-31T10:16:54.022Z,5.03
2023-03-31T10:19:22.892Z,5.53
2023-03-31T10:22:26.779Z,6.25
2023-03-31T10:24:54.453Z,6.35
2023-03-31T10:27:31.053Z,4.80
2023-03-31T10:30:01.368Z,3.17
2023-03-31T10:32:31.289Z,4.40
2023-03-31T10:35:06.478Z,6.85
2023-03-31T10:37:36.512Z,4.60
2023-03-31T10:40:25.904Z,6.85
2023-03-31T10:43:17.014Z,7.05
2023-03-31T10:45:56.449Z,6.22
2023-03-31T10:48:29.934Z,6.30
2023-03-31T10:51:18.922Z,5.15
2023-03-31T10:53:49.672Z,9.98
2023-03-31T10:56:43.818Z,4.72
2023-03-31T10:59:51.898Z,10.05
2023-03-31T11:02:48.489Z,6.38
2023-03-31T11:05:28.194Z,8.93
2023-03-31T11:08:10.641Z,6.95
2023-03-31T11:11:02.243Z,5.63
2023-03-31T11:13:56.673Z,5.32
2023-03-31T11:16:30.624Z,8.30
2023-03-31T11:19:06.039Z,7.93
2023-03-31T11:21:58.061Z,7.63
2023-03-31T11:24:46.962Z,4.47
2023-03-31T11:27:55.444Z,5.38
2023-03-31T11:30:31.460Z,4.88
2023-03-31T11:33:05.168Z,6.00
2023-03-31T11:35:38.659Z,6.45
2023-03-31T11:38:24.775Z,4.28
2023-03-31T11:41:16.513Z,3.55
2023-03-31T11:43:48.763Z,3.80
2023-03-31T11:46:21.847Z,2.92
2023-03-31T11:48:59.943Z,2.60
2023-03-31T11:51:35.363Z,4.22
2023-03-31T11:54:12.292Z,6.13
2023-03-31T11:56:41.450Z,3.30
2023-03-31T11:59:13.761Z,6.15
2023-03-31T12:02:04.384Z,6.80
2023-03-31T12:04:43.349Z,4.68
2023-03-31T12:07:26.612Z,5.40
2023-03-31T12:10:06.002Z,7.75
2023-03-31T12:12:40.000Z,5.35
2023-03-31T12:15:25.198Z,4.57
2023-03-31T12:18:16.544Z,4.38
2023-03-31T12:20:53.321Z,3.45
2023-03-31T12:23:28.653Z,3.10
2023-03-31T12:26:31.217Z,7.50
2023-03-31T12:29:04.613Z,4.60
2023-03-31T12:31:35.809Z,5.90
2023-03-31T12:34:09.068Z,8.65
2023-03-31T12:36:55.239Z,4.38
2023-03-31T12:39:38.492Z,4.55
2023-03-31T12:42:25.577Z,5.60
2023-03-31T12:45:05.275Z,5.35
2023-03-31T12:47:44.939Z,8.32
2023-03-31T12:50:44.625Z,3.20
2023-03-31T12:53:58.427Z,3.20
2023-03-31T12:56:27.492Z,3.35
2023-03-31T12:58:55.087Z,7.82
2023-03-31T13:01:25.535Z,6.18
2023-03-31T13:04:21.243Z,4.80
2023-03-31T13:06:59.581Z,7.05
2023-03-31T13:09:33.336Z,4.82
2023-03-31T13:12:08.158Z,7.00
2023-03-31T13:14:40.367Z,4.60
2023-03-31T13:17:27.773Z,4.85
2023-03-31T13:19:57.881Z,7.38
2023-03-31T13:22:40.928Z,7.15
2023-03-31T13:25:30.841Z,2.85
2023-03-31T13:28:08.598Z,5.82
2023-03-31T13:30:36.309Z,4.18
2023-03-31T13:33:15.374Z,4.72
2023-03-31T13:35:57.195Z,5.60
2023-03-31T13:38:36.828Z,9.38
2023-03-31T13:41:32.299Z,3.50
2023-03-31T13:44:02.373Z,4.88
2023-03-31T13:46:48.371Z,4.70
2023-03-31T13:49:42.450Z,6.88
2023-03-31T13:52:12.131Z,6.32
2023-03-31T13:55:01.199Z,4.13
2023-03-31T13:57:53.099Z,5.18
2023-03-31T14:00:42.053Z,6.57
2023-03-31T14:03:26.903Z,7.20
2023-03-31T14:06:08.384Z,5.53
2023-03-31T14:11:23.796Z,8.55
2023-03-31T14:14:17.139Z,5.88
2023-03-31T14:16:57.117Z,9.00
2023-03-31T14:20:00.277Z,8.07
2023-03-31T14:22:57.793Z,9.23
2023-03-31T14:25:31.290Z,10.80
2023-03-31T14:28:05.240Z,9.50
2023-03-31T14:30:35.458Z,9.40
2023-03-31T14:33:48.915Z,9.27
2023-03-31T14:36:41.824Z,10.35
2023-03-31T14:39:11.891Z,7.38
2023-03-31T14:41:40.230Z,9.88
2023-03-31T14:44:14.254Z,10.45
2023-03-31T14:46:42.332Z,11.23
2023-03-31T14:49:16.608Z,12.18
2023-03-31T14:51:45.947Z,10.77
2023-03-31T14:54:18.574Z,9.45
2023-03-31T14:56:51.267Z,15.57
2023-03-31T14:59:27.689Z,10.77
2023-03-31T15:01:58.511Z,13.32
2023-03-31T15:04:39.634Z,15.68
2023-03-31T15:07:11.865Z,14.52
2023-03-31T15:09:40.562Z,15.38
2023-03-31T15:12:14.975Z,21.83
2023-03-31T15:14:48.208Z,21.60
2023-03-31T15:17:29.198Z,24.30
2023-03-31T15:20:01.458Z,21.52
2023-03-31T15:22:30.746Z,29.92
2023-03-31T15:24:58.137Z,29.38
2023-03-31T15:27:41.225Z,35.97
2023-03-31T15:30:14.995Z,31.15
2023-03-31T15:33:15.860Z,31.58
2023-03-31T15:36:11.922Z,34.92
2023-03-31T15:38:39.987Z,33.67
2023-03-31T15:41:17.619Z,32.33
2023-03-31T15:43:48.519Z,33.65
2023-03-31T15:46:40.827Z,36.83
2023-03-31T15:49:21.132Z,32.85
2023-03-31T15:51:48.786Z,24.83
2023-03-31T15:54:36.984Z,26.58
2023-03-31T15:57:06.430Z,23.13
2023-03-31T15:59:56.008Z,21.95
2023-03-31T16:02:39.092Z,22.73
2023-03-31T16:05:10.803Z,23.55
2023-03-31T16:07:47.819Z,21.05
2023-03-31T16:10:18.266Z,21.33
2023-03-31T16:13:03.555Z,26.67
2023-03-31T16:15:44.596Z,22.88
2023-03-31T16:18:24.976Z,35.33
2023-03-31T16:20:57.496Z,30.20
2023-03-31T16:23:27.835Z,31.33
2023-03-31T16:25:55.700Z,41.25
2023-03-31T16:28:27.162Z,35.83
2023-03-31T16:33:23.687Z,39.58
2023-03-31T16:35:55.440Z,41.00
2023-03-31T16:38:24.542Z,42.00
2023-03-31T16:40:57.986Z,39.70
2023-03-31T16:43:27.693Z,25.33
2023-03-31T16:45:57.624Z,31.65
2023-03-31T16:48:27.465Z,37.63
2023-03-31T16:50:57.546Z,28.17
2023-03-31T16:53:27.911Z,29.35
2023-03-31T16:55:56.323Z,32.17
2023-03-31T16:58:24.783Z,29.25
2023-03-31T17:00:52.541Z,32.60
2023-03-31T17:03:20.634Z,27.23
2023-03-31T17:05:52.960Z,37.17
2023-03-31T17:08:23.055Z,25.60
2023-03-31T17:10:56.296Z,25.73
2023-03-31T17:13:23.683Z,29.98
2023-03-31T17:15:58.323Z,39.45
2023-03-31T17:18:36.023Z,29.05
2023-03-31T17:21:06.049Z,46.90
2023-03-31T17:23:33.618Z,27.80
2023-03-31T17:26:01.499Z,29.00
2023-03-31T17:28:28.736Z,27.85
2023-03-31T17:30:57.635Z,25.35
2023-03-31T17:33:25.742Z,29.63
2023-03-31T17:35:58.703Z,29.20
2023-03-31T17:38:26.731Z,33.10
2023-03-31T17:40:54.756Z,32.28
2023-03-31T17:43:22.125Z,34.92
2023-03-31T17:45:49.726Z,43.45
2023-03-31T17:48:17.041Z,56.65
2023-03-31T17:50:44.567Z,43.97
2023-03-31T17:53:11.917Z,72.25
2023-03-31T17:55:39.668Z,39.20
2023-03-31T17:58:08.684Z,37.28
2023-03-31T18:00:36.284Z,29.88
2023-03-31T18:03:03.792Z,28.80
2023-03-31T18:05:33.533Z,31.23
2023-03-31T18:08:00.843Z,32.58
2023-03-31T18:10:28.425Z,33.25
2023-03-31T18:12:55.619Z,49.00
2023-03-31T18:15:23.273Z,44.25
2023-03-31T18:17:50.725Z,35.60
2023-03-31T18:20:18.369Z,37.22
2023-03-31T18:22:45.905Z,38.45
2023-03-31T18:25:13.582Z,40.67
2023-03-31T18:27:40.794Z,49.22
2023-03-31T18:30:09.213Z,50.97
2023-03-31T18:32:36.976Z,44.08
2023-03-31T18:35:06.393Z,56.35
2023-03-31T18:37:33.984Z,83.18
2023-03-31T18:40:01.624Z,47.72
2023-03-31T18:42:28.878Z,54.65
2023-03-31T18:44:56.792Z,54.53
2023-03-31T18:47:24.580Z,57.80
2023-03-31T18:49:55.658Z,66.32
2023-03-31T18:52:23.172Z,54.97
2023-03-31T18:54:51.414Z,89.22
2023-03-31T18:57:19.121Z,54.72
2023-03-31T18:59:47.220Z,52.88
2023-03-31T19:02:18.138Z,45.65
2023-03-31T19:04:47.030Z,44.85
2023-03-31T19:07:15.739Z,125.22
2023-03-31T19:09:43.581Z,58.72
2023-03-31T19:12:11.915Z,38.47
2023-03-31T19:14:41.084Z,39.78
2023-03-31T19:17:08.812Z,50.22
2023-03-31T19:19:36.810Z,37.42
2023-03-31T19:22:04.030Z,34.92
2023-03-31T19:24:31.737Z,45.40
2023-03-31T19:26:59.021Z,32.83
2023-03-31T19:29:28.229Z,29.25
2023-03-31T19:31:56.281Z,31.27
2023-03-31T19:34:23.859Z,48.75
2023-03-31T19:36:51.079Z,60.75
2023-03-31T19:39:19.897Z,32.63
2023-03-31T19:41:47.618Z,31.63
2023-03-31T19:44:15.128Z,27.55
2023-03-31T19:46:42.369Z,67.65
2023-03-31T19:49:09.875Z,32.05
2023-03-31T19:51:37.101Z,27.30
2023-03-31T19:54:04.707Z,33.67
2023-03-31T19:56:32.720Z,41.03
2023-03-31T19:59:00.348Z,30.67
2023-03-31T20:01:27.974Z,35.17
2023-03-31T20:03:56.188Z,29.48
2023-03-31T20:06:26.505Z,28.17
2023-03-31T20:08:59.570Z,54.30
2023-03-31T20:11:28.463Z,28.25
2023-03-31T20:13:56.728Z,30.80
2023-03-31T20:16:27.589Z,27.88
2023-03-31T20:19:01.414Z,34.22
2023-03-31T20:21:30.777Z,42.17
2023-03-31T20:23:58.969Z,44.22
2023-03-31T20:26:29.704Z,27.70
2023-03-31T20:28:58.910Z,24.57
2023-03-31T20:31:29.020Z,19.98
2023-03-31T20:33:57.411Z,21.05
2023-03-31T20:36:28.972Z,25.92
2023-03-31T20:41:27.279Z,32.22
2023-03-31T20:43:55.625Z,17.23
2023-03-31T20:46:23.087Z,17.95
2023-03-31T20:48:53.448Z,24.85
2023-03-31T20:51:23.233Z,17.88
2023-03-31T20:53:53.149Z,23.20
2023-03-31T20:56:29.062Z,23.23
2023-03-31T20:58:59.136Z,11.43
2023-03-31T21:01:29.765Z,13.93
2023-03-31T21:04:01.245Z,12.75
2023-03-31T21:06:31.201Z,14.68
2023-03-31T21:08:58.904Z,18.23
2023-03-31T21:11:26.690Z,12.23
2023-03-31T21:13:54.427Z,9.70
2023-03-31T21:16:22.492Z,8.40
2023-03-31T21:18:51.812Z,9.70
2023-03-31T21:21:19.591Z,14.20
2023-03-31T21:23:47.362Z,8.57
2023-03-31T21:26:15.839Z,41.72
2023-03-31T21:28:44.495Z,10.05
2023-03-31T21:31:15.474Z,11.68
2023-03-31T21:33:44.916Z,9.57
2023-03-31T21:36:15.266Z,20.75
2023-03-31T21:38:43.359Z,23.40
2023-03-31T21:41:14.309Z,8.52
2023-03-31T21:43:42.372Z,24.45
2023-03-31T21:46:15.881Z,36.40
2023-03-31T21:48:43.970Z,55.97
2023-03-31T21:51:11.931Z,10.77
2023-03-31T21:53:39.781Z,15.18
2023-03-31T21:56:07.418Z,7.45
2023-03-31T21:58:35.183Z,9.18
2023-03-31T22:01:04.142Z,34.97
2023-03-31T22:03:34.470Z,12.90
2023-03-31T22:06:04.002Z,10.70
2023-03-31T22:08:31.990Z,13.10
2023-03-31T22:11:00.476Z,11.18
2023-03-31T22:13:29.214Z,11.95
2023-03-31T22:15:56.729Z,52.40
2023-03-31T22:18:24.319Z,27.67
2023-03-31T22:20:51.679Z,19.25
2023-03-31T22:23:20.945Z,11.57
2023-03-31T22:25:49.140Z,13.50
2023-03-31T22:28:17.220Z,67.88
2023-03-31T22:30:44.737Z,10.82
2023-03-31T22:33:12.294Z,29.88
2023-03-31T22:35:39.751Z,23.38
2023-03-31T22:38:08.632Z,51.80
2023-03-31T22:40:36.355Z,9.70
2023-03-31T22:43:04.814Z,22.75
2023-03-31T22:45:32.346Z,13.32
2023-03-31T22:48:00.078Z,19.80
2023-03-31T22:50:27.462Z,14.18
2023-03-31T22:52:55.103Z,18.45
2023-03-31T22:55:23.024Z,15.68
2023-03-31T22:57:50.716Z,60.13
2023-03-31T23:00:18.242Z,10.15
2023-03-31T23:02:45.827Z,22.95
2023-03-31T23:05:13.226Z,10.02
2023-03-31T23:07:41.637Z,9.80
2023-03-31T23:10:09.220Z,6.20
2023-03-31T23:12:36.972Z,6.13
2023-03-31T23:15:04.461Z,6.13
2023-03-31T23:17:32.059Z,11.07
2023-03-31T23:19:59.359Z,5.60
2023-03-31T23:22:26.912Z,5.47
2023-03-31T23:24:54.244Z,23.13
2023-03-31T23:27:22.243Z,6.72
2023-03-31T23:29:49.490Z,11.57
2023-03-31T23:32:17.030Z,27.25
2023-03-31T23:34:44.265Z,18.20
2023-03-31T23:37:13.405Z,9.95
2023-03-31T23:39:40.635Z,10.85
2023-03-31T23:42:10.132Z,17.52
2023-03-31T23:44:37.852Z,12.43
2023-03-31T23:47:06.284Z,12.70
2023-03-31T23:49:33.749Z,14.02
2023-03-31T23:52:01.424Z,12.68
2023-03-31T23:54:29.072Z,28.58
2023-03-31T23:56:57.033Z,45.50
2023-03-31T23:59:24.371Z,27.27
